createdAt,value
2018-12-16T00:00:25.547Z,0.83
2018-12-16T00:00:51.663Z,0.83
2018-12-16T00:01:17.768Z,0.81
2018-12-16T00:01:43.920Z,0.86
2018-12-16T00:02:09.981Z,0.83
2018-12-16T00:02:36.088Z,0.74
2018-12-16T00:03:02.189Z,0.8
2018-12-16T00:03:28.298Z,0.87
2018-12-16T00:03:54.403Z,0.92
2018-12-16T00:04:20.530Z,0.94
2018-12-16T00:04:49.935Z,1.05
2018-12-16T00:05:14.715Z,0.95
2018-12-16T00:05:40.847Z,1.02
2018-12-16T00:06:06.985Z,1.05
2018-12-16T00:06:33.090Z,1.05
2018-12-16T00:06:59.191Z,1.08
2018-12-16T00:07:25.299Z,0.99
2018-12-16T00:07:51.399Z,1.02
2018-12-16T00:08:17.503Z,1.02
2018-12-16T00:08:43.631Z,0.96
2018-12-16T00:09:09.739Z,0.94
2018-12-16T00:09:35.872Z,1.02
2018-12-16T00:10:01.974Z,0.91
2018-12-16T00:10:28.084Z,0.92
2018-12-16T00:10:54.186Z,0.88
2018-12-16T00:11:20.374Z,0.94
2018-12-16T00:11:46.533Z,0.96
2018-12-16T00:12:13.033Z,0.98
2018-12-16T00:12:39.854Z,0.92
2018-12-16T00:13:07.346Z,0.88
2018-12-16T00:13:34.012Z,1.01
2018-12-16T00:14:00.622Z,0.94
2018-12-16T00:14:26.665Z,0.98
2018-12-16T00:14:53.647Z,0.96
2018-12-16T00:15:20.148Z,0.95
2018-12-16T00:15:47.036Z,0.98
2018-12-16T00:16:13.967Z,0.96
2018-12-16T00:16:41.278Z,0.98
2018-12-16T00:17:08.836Z,0.95
2018-12-16T00:17:35.808Z,0.98
2018-12-16T00:18:03.955Z,1.02
2018-12-16T00:18:32.091Z,1.01
2018-12-16T00:19:00.558Z,1.05
2018-12-16T00:19:27.609Z,1.05
2018-12-16T00:19:55.064Z,0.99
2018-12-16T00:20:22.350Z,1.08
2018-12-16T00:20:49.697Z,0.95
2018-12-16T00:21:18.498Z,0.95
2018-12-16T00:21:45.942Z,0.98
2018-12-16T00:22:13.489Z,0.96
2018-12-16T00:22:41.221Z,0.99
2018-12-16T00:23:09.273Z,0.99
2018-12-16T00:23:37.528Z,1.05
2018-12-16T00:24:05.573Z,1.01
2018-12-16T00:24:33.057Z,0.92
2018-12-16T00:25:01.627Z,0.98
2018-12-16T00:25:29.376Z,1.02
2018-12-16T00:25:58.243Z,1.13
2018-12-16T00:26:25.881Z,1.05
2018-12-16T00:26:53.850Z,0.98
2018-12-16T00:27:21.941Z,1.02
2018-12-16T00:27:48.018Z,1.08
2018-12-16T00:28:14.126Z,1.02
2018-12-16T00:28:40.224Z,1.05
2018-12-16T00:29:06.326Z,1.02
2018-12-16T00:29:32.435Z,1.05
2018-12-16T00:29:58.595Z,1.02
2018-12-16T00:30:24.703Z,1.05
2018-12-16T00:30:50.810Z,1.01
2018-12-16T00:31:16.915Z,1.04
2018-12-16T00:31:43.017Z,1.05
2018-12-16T00:32:09.118Z,1.05
2018-12-16T00:32:35.228Z,1.1
2018-12-16T00:33:01.327Z,0.95
2018-12-16T00:33:27.428Z,1.13
2018-12-16T00:33:53.540Z,1.05
2018-12-16T00:34:19.636Z,1.06
2018-12-16T00:34:45.769Z,1.08
2018-12-16T00:35:11.908Z,1.05
2018-12-16T00:35:38.014Z,1.04
2018-12-16T00:36:04.155Z,0.96
2018-12-16T00:36:30.254Z,0.94
2018-12-16T00:36:56.357Z,1.02
2018-12-16T00:37:22.458Z,1.08
2018-12-16T00:37:48.567Z,1.1
2018-12-16T00:38:14.670Z,1.08
2018-12-16T00:38:40.769Z,1.08
2018-12-16T00:39:06.874Z,0.99
2018-12-16T00:39:32.971Z,1.12
2018-12-16T00:39:59.084Z,1.05
2018-12-16T00:40:25.194Z,1.02
2018-12-16T00:40:51.297Z,1.05
2018-12-16T00:41:17.404Z,1.14
2018-12-16T00:41:43.533Z,1.14
2018-12-16T00:42:09.633Z,1.13
2018-12-16T00:42:35.764Z,1.1
2018-12-16T00:43:01.907Z,1.13
2018-12-16T00:43:28.019Z,1.12
2018-12-16T00:43:54.234Z,1.06
2018-12-16T00:44:20.754Z,1.14
2018-12-16T00:44:47.266Z,1.1
2018-12-16T00:45:14.914Z,1.04
2018-12-16T00:45:43.271Z,1.14
2018-12-16T00:46:11.263Z,0.99
2018-12-16T00:46:38.979Z,1.12
2018-12-16T00:47:05.433Z,1.06
2018-12-16T00:47:31.554Z,1.13
2018-12-16T00:47:58.008Z,1.17
2018-12-16T00:48:24.112Z,1.14
2018-12-16T00:48:50.217Z,1.04
2018-12-16T00:49:16.323Z,1.01
2018-12-16T00:49:42.433Z,1.06
2018-12-16T00:50:08.533Z,1.04
2018-12-16T00:50:34.641Z,1.12
2018-12-16T00:51:00.745Z,1.14
2018-12-16T00:51:26.874Z,1.23
2018-12-16T00:51:53.005Z,1.2
2018-12-16T00:52:19.117Z,1.2
2018-12-16T00:52:45.245Z,1.26
2018-12-16T00:53:11.347Z,1.32
2018-12-16T00:53:37.449Z,1.32
2018-12-16T00:54:03.548Z,1.3
2018-12-16T00:54:29.651Z,1.28
2018-12-16T00:54:55.753Z,1.3
2018-12-16T00:55:21.862Z,1.3
2018-12-16T00:55:47.966Z,1.31
2018-12-16T00:56:14.070Z,1.3
2018-12-16T00:56:40.228Z,1.28
2018-12-16T00:57:06.335Z,1.3
2018-12-16T00:57:32.439Z,1.28
2018-12-16T00:57:58.536Z,1.31
2018-12-16T00:58:24.648Z,1.3
2018-12-16T00:58:50.746Z,1.3
2018-12-16T00:59:16.855Z,1.3
2018-12-16T00:59:42.984Z,1.26
2018-12-16T01:00:09.094Z,1.34
2018-12-16T01:00:35.196Z,1.37
2018-12-16T01:01:01.306Z,1.34
2018-12-16T01:01:27.438Z,1.31
2018-12-16T01:01:53.547Z,1.44
2018-12-16T01:02:19.656Z,1.42
2018-12-16T01:02:45.761Z,1.45
2018-12-16T01:03:11.897Z,1.4
2018-12-16T01:03:38.001Z,1.41
2018-12-16T01:04:04.106Z,1.4
2018-12-16T01:04:30.204Z,1.38
2018-12-16T01:04:56.335Z,1.41
2018-12-16T01:05:22.847Z,1.4
2018-12-16T01:05:50.270Z,1.41
2018-12-16T01:06:17.029Z,1.38
2018-12-16T01:06:44.616Z,1.42
2018-12-16T01:07:11.423Z,1.37
2018-12-16T01:07:37.883Z,1.45
2018-12-16T01:08:04.693Z,1.52
2018-12-16T01:08:31.264Z,1.45
2018-12-16T01:08:59.112Z,1.45
2018-12-16T01:09:26.366Z,1.49
2018-12-16T01:09:52.482Z,1.48
2018-12-16T01:10:19.097Z,1.52
2018-12-16T01:10:45.253Z,1.49
2018-12-16T01:11:11.720Z,1.41
2018-12-16T01:11:38.410Z,1.56
2018-12-16T01:12:05.556Z,1.5
2018-12-16T01:12:32.594Z,1.58
2018-12-16T01:12:58.972Z,1.52
2018-12-16T01:13:26.753Z,1.55
2018-12-16T01:13:53.518Z,1.55
2018-12-16T01:14:20.055Z,1.55
2018-12-16T01:14:46.870Z,1.6
2018-12-16T01:15:13.394Z,1.6
2018-12-16T01:15:40.518Z,1.55
2018-12-16T01:16:06.934Z,1.59
2018-12-16T01:16:33.068Z,1.56
2018-12-16T01:16:59.628Z,1.6
2018-12-16T01:17:26.144Z,1.59
2018-12-16T01:17:53.033Z,1.55
2018-12-16T01:18:19.566Z,1.5
2018-12-16T01:18:46.103Z,1.59
2018-12-16T01:19:12.714Z,1.56
2018-12-16T01:19:39.230Z,1.62
2018-12-16T01:20:05.963Z,1.49
2018-12-16T01:20:32.071Z,1.45
2018-12-16T01:20:59.081Z,1.59
2018-12-16T01:21:25.654Z,1.44
2018-12-16T01:21:51.747Z,1.45
2018-12-16T01:22:18.758Z,1.38
2018-12-16T01:22:45.784Z,1.42
2018-12-16T01:23:12.755Z,1.48
2018-12-16T01:23:39.483Z,1.45
2018-12-16T01:24:06.130Z,1.44
2018-12-16T01:24:32.244Z,1.48
2018-12-16T01:24:58.801Z,1.44
2018-12-16T01:25:26.606Z,1.5
2018-12-16T01:25:54.787Z,1.45
2018-12-16T01:26:22.891Z,1.53
2018-12-16T01:26:50.796Z,1.5
2018-12-16T01:27:19.297Z,1.45
2018-12-16T01:27:47.303Z,1.53
2018-12-16T01:28:15.069Z,1.42
2018-12-16T01:28:43.151Z,1.5
2018-12-16T01:29:11.379Z,1.44
2018-12-16T01:29:39.447Z,1.52
2018-12-16T01:30:07.020Z,1.48
2018-12-16T01:30:34.284Z,1.45
2018-12-16T01:31:01.329Z,1.44
2018-12-16T01:31:27.441Z,1.49
2018-12-16T01:31:53.539Z,1.52
2018-12-16T01:32:19.647Z,1.49
2018-12-16T01:32:45.757Z,1.49
2018-12-16T01:33:11.861Z,1.52
2018-12-16T01:33:37.960Z,1.49
2018-12-16T01:34:04.069Z,1.49
2018-12-16T01:34:30.208Z,1.55
2018-12-16T01:34:57.306Z,1.53
2018-12-16T01:35:23.412Z,1.5
2018-12-16T01:35:49.507Z,1.49
2018-12-16T01:36:15.607Z,1.55
2018-12-16T01:36:41.714Z,1.45
2018-12-16T01:37:07.815Z,1.52
2018-12-16T01:37:33.919Z,1.45
2018-12-16T01:38:00.033Z,1.5
2018-12-16T01:38:26.182Z,1.53
2018-12-16T01:38:52.269Z,1.52
2018-12-16T01:39:18.374Z,1.48
2018-12-16T01:39:44.482Z,1.52
2018-12-16T01:40:10.592Z,1.48
2018-12-16T01:40:36.701Z,1.5
2018-12-16T01:41:02.834Z,1.45
2018-12-16T01:41:28.967Z,1.52
2018-12-16T01:41:55.075Z,1.5
2018-12-16T01:42:21.191Z,1.53
2018-12-16T01:42:47.313Z,1.5
2018-12-16T01:43:13.445Z,1.52
2018-12-16T01:43:40.813Z,1.52
2018-12-16T01:44:07.600Z,1.49
2018-12-16T01:44:34.803Z,1.53
2018-12-16T01:45:01.560Z,1.55
2018-12-16T01:45:28.717Z,1.52
2018-12-16T01:45:55.211Z,1.58
2018-12-16T01:46:21.856Z,1.52
2018-12-16T01:46:49.570Z,1.62
2018-12-16T01:47:16.443Z,1.55
2018-12-16T01:47:42.900Z,1.52
2018-12-16T01:48:09.394Z,1.5
2018-12-16T01:48:36.883Z,1.55
2018-12-16T01:49:04.013Z,1.48
2018-12-16T01:49:31.218Z,1.48
2018-12-16T01:49:58.538Z,1.58
2018-12-16T01:50:25.841Z,1.5
2018-12-16T01:50:52.314Z,1.49
2018-12-16T01:51:19.849Z,1.59
2018-12-16T01:51:46.224Z,1.5
2018-12-16T01:52:12.705Z,1.59
2018-12-16T01:52:40.338Z,1.58
2018-12-16T01:53:08.375Z,1.62
2018-12-16T01:53:36.504Z,1.45
2018-12-16T01:54:04.597Z,1.49
2018-12-16T01:54:32.593Z,1.58
2018-12-16T01:55:00.662Z,1.48
2018-12-16T01:55:28.834Z,1.52
2018-12-16T01:55:56.992Z,1.53
2018-12-16T01:56:24.799Z,1.44
2018-12-16T01:56:52.651Z,1.42
2018-12-16T01:57:20.635Z,1.48
2018-12-16T01:57:48.131Z,1.58
2018-12-16T01:58:15.827Z,1.55
2018-12-16T01:58:43.701Z,1.59
2018-12-16T01:59:12.001Z,1.55
2018-12-16T01:59:40.145Z,1.56
2018-12-16T02:00:07.891Z,1.63
2018-12-16T02:00:35.837Z,1.59
2018-12-16T02:01:03.475Z,1.67
2018-12-16T02:01:30.665Z,1.68
2018-12-16T02:01:57.825Z,1.73
2018-12-16T02:02:23.957Z,1.73
2018-12-16T02:02:50.090Z,1.67
2018-12-16T02:03:16.194Z,1.68
2018-12-16T02:03:42.329Z,1.62
2018-12-16T02:04:09.846Z,1.62
2018-12-16T02:04:37.972Z,1.6
2018-12-16T02:05:05.602Z,1.58
2018-12-16T02:05:33.145Z,1.6
2018-12-16T02:06:01.141Z,1.55
2018-12-16T02:06:29.209Z,1.55
2018-12-16T02:06:57.511Z,1.45
2018-12-16T02:07:25.229Z,1.55
2018-12-16T02:07:53.170Z,1.53
2018-12-16T02:08:21.381Z,1.48
2018-12-16T02:08:49.506Z,1.49
2018-12-16T02:09:18.062Z,1.53
2018-12-16T02:09:46.119Z,1.49
2018-12-16T02:10:14.082Z,1.5
2018-12-16T02:10:42.010Z,1.53
2018-12-16T02:11:09.877Z,1.5
2018-12-16T02:11:38.024Z,1.52
2018-12-16T02:12:06.083Z,1.58
2018-12-16T02:12:34.055Z,1.6
2018-12-16T02:13:01.703Z,1.59
2018-12-16T02:13:29.134Z,1.6
2018-12-16T02:13:56.892Z,1.63
2018-12-16T02:14:24.808Z,1.62
2018-12-16T02:14:52.754Z,1.59
2018-12-16T02:15:19.558Z,1.7
2018-12-16T02:15:46.117Z,1.73
2018-12-16T02:16:13.012Z,1.77
2018-12-16T02:16:41.123Z,1.67
2018-12-16T02:17:08.273Z,1.68
2018-12-16T02:17:35.679Z,1.8
2018-12-16T02:18:03.141Z,1.71
2018-12-16T02:18:29.881Z,1.73
2018-12-16T02:18:57.908Z,1.71
2018-12-16T02:19:25.386Z,1.77
2018-12-16T02:19:53.098Z,1.77
2018-12-16T02:20:21.018Z,1.77
2018-12-16T02:20:48.809Z,1.71
2018-12-16T02:21:16.539Z,1.81
2018-12-16T02:21:44.472Z,1.71
2018-12-16T02:22:12.297Z,1.71
2018-12-16T02:22:40.217Z,1.74
2018-12-16T02:23:08.199Z,1.8
2018-12-16T02:23:36.164Z,1.76
2018-12-16T02:24:04.091Z,1.71
2018-12-16T02:24:31.922Z,1.73
2018-12-16T02:24:59.470Z,1.73
2018-12-16T02:25:27.406Z,1.71
2018-12-16T02:25:54.133Z,1.74
2018-12-16T02:26:21.606Z,1.76
2018-12-16T02:26:49.688Z,1.71
2018-12-16T02:27:17.567Z,1.71
2018-12-16T02:27:45.774Z,1.78
2018-12-16T02:28:13.834Z,1.71
2018-12-16T02:28:41.834Z,1.77
2018-12-16T02:29:10.091Z,1.8
2018-12-16T02:29:38.244Z,1.73
2018-12-16T02:30:06.484Z,1.73
2018-12-16T02:30:34.552Z,1.77
2018-12-16T02:31:02.501Z,1.68
2018-12-16T02:31:29.702Z,1.76
2018-12-16T02:31:55.837Z,1.81
2018-12-16T02:32:21.963Z,1.78
2018-12-16T02:32:48.066Z,1.76
2018-12-16T02:33:14.168Z,1.8
2018-12-16T02:33:40.303Z,1.8
2018-12-16T02:34:06.406Z,1.81
2018-12-16T02:34:32.505Z,1.77
2018-12-16T02:34:58.612Z,1.81
2018-12-16T02:35:24.746Z,1.81
2018-12-16T02:35:50.879Z,1.77
2018-12-16T02:36:17.002Z,1.78
2018-12-16T02:36:43.105Z,1.85
2018-12-16T02:37:09.228Z,1.84
2018-12-16T02:37:35.337Z,1.81
2018-12-16T02:38:01.436Z,1.89
2018-12-16T02:38:27.541Z,1.84
2018-12-16T02:38:53.698Z,1.84
2018-12-16T02:39:19.800Z,1.88
2018-12-16T02:39:45.897Z,1.87
2018-12-16T02:40:12.006Z,1.88
2018-12-16T02:40:38.112Z,1.8
2018-12-16T02:41:04.212Z,1.92
2018-12-16T02:41:30.316Z,1.84
2018-12-16T02:41:56.467Z,1.8
2018-12-16T02:42:22.561Z,1.92
2018-12-16T02:42:48.663Z,1.95
2018-12-16T02:43:14.798Z,1.89
2018-12-16T02:43:40.908Z,1.94
2018-12-16T02:44:07.034Z,1.87
2018-12-16T02:44:33.135Z,1.97
2018-12-16T02:44:59.261Z,1.97
2018-12-16T02:45:25.367Z,1.94
2018-12-16T02:45:51.473Z,1.92
2018-12-16T02:46:17.576Z,2.02
2018-12-16T02:46:43.713Z,1.92
2018-12-16T02:47:09.810Z,1.88
2018-12-16T02:47:35.916Z,1.88
2018-12-16T02:48:02.012Z,1.91
2018-12-16T02:48:28.144Z,1.91
2018-12-16T02:48:54.284Z,1.95
2018-12-16T02:49:20.406Z,1.94
2018-12-16T02:49:46.548Z,1.97
2018-12-16T02:50:12.642Z,1.88
2018-12-16T02:50:38.761Z,1.97
2018-12-16T02:51:04.977Z,1.92
2018-12-16T02:51:31.067Z,1.84
2018-12-16T02:51:57.175Z,1.87
2018-12-16T02:52:23.274Z,1.84
2018-12-16T02:52:49.423Z,1.89
2018-12-16T02:53:16.532Z,1.87
2018-12-16T02:53:42.639Z,1.95
2018-12-16T02:54:08.770Z,1.97
2018-12-16T02:54:34.930Z,1.84
2018-12-16T02:55:01.047Z,1.99
2018-12-16T02:55:27.190Z,1.94
2018-12-16T02:55:53.290Z,2
2018-12-16T02:56:19.435Z,1.94
2018-12-16T02:56:45.525Z,2.06
2018-12-16T02:57:11.678Z,2.02
2018-12-16T02:57:37.785Z,2.02
2018-12-16T02:58:03.910Z,1.88
2018-12-16T02:58:30.069Z,1.95
2018-12-16T02:58:56.177Z,1.89
2018-12-16T02:59:22.282Z,1.99
2018-12-16T02:59:48.406Z,1.95
2018-12-16T03:00:14.516Z,1.97
2018-12-16T03:00:40.618Z,1.97
2018-12-16T03:01:06.719Z,1.99
2018-12-16T03:01:32.818Z,1.97
2018-12-16T03:01:58.921Z,1.89
2018-12-16T03:02:25.026Z,1.89
2018-12-16T03:02:51.172Z,1.95
2018-12-16T03:03:17.266Z,1.97
2018-12-16T03:03:43.371Z,1.92
2018-12-16T03:04:09.470Z,1.95
2018-12-16T03:04:35.576Z,1.95
2018-12-16T03:05:01.683Z,1.97
2018-12-16T03:05:27.783Z,1.99
2018-12-16T03:05:53.886Z,1.92
2018-12-16T03:06:20.044Z,1.89
2018-12-16T03:06:46.144Z,1.95
2018-12-16T03:07:12.275Z,1.88
2018-12-16T03:07:38.414Z,1.88
2018-12-16T03:08:04.510Z,1.84
2018-12-16T03:08:30.623Z,1.88
2018-12-16T03:08:56.724Z,1.81
2018-12-16T03:09:22.825Z,1.89
2018-12-16T03:09:48.930Z,1.94
2018-12-16T03:10:15.060Z,1.91
2018-12-16T03:10:41.170Z,1.85
2018-12-16T03:11:07.280Z,1.85
2018-12-16T03:11:33.379Z,1.88
2018-12-16T03:11:59.486Z,1.84
2018-12-16T03:12:25.619Z,1.85
2018-12-16T03:12:51.725Z,1.78
2018-12-16T03:13:17.837Z,1.78
2018-12-16T03:13:43.935Z,1.81
2018-12-16T03:14:10.041Z,1.84
2018-12-16T03:14:36.151Z,1.84
2018-12-16T03:15:02.254Z,1.81
2018-12-16T03:15:28.410Z,1.89
2018-12-16T03:15:54.519Z,1.85
2018-12-16T03:16:20.619Z,1.77
2018-12-16T03:16:46.784Z,1.81
2018-12-16T03:17:12.913Z,1.91
2018-12-16T03:17:39.041Z,1.84
2018-12-16T03:18:05.167Z,1.85
2018-12-16T03:18:31.334Z,1.81
2018-12-16T03:18:57.460Z,1.81
2018-12-16T03:19:23.567Z,1.81
2018-12-16T03:19:49.698Z,1.78
2018-12-16T03:20:15.803Z,1.77
2018-12-16T03:20:42.981Z,1.78
2018-12-16T03:21:09.057Z,1.91
2018-12-16T03:21:35.165Z,1.77
2018-12-16T03:22:01.295Z,1.87
2018-12-16T03:22:27.430Z,1.88
2018-12-16T03:22:53.564Z,1.81
2018-12-16T03:23:19.748Z,1.77
2018-12-16T03:23:45.927Z,1.89
2018-12-16T03:24:12.026Z,1.8
2018-12-16T03:24:38.128Z,1.8
2018-12-16T03:25:04.227Z,1.85
2018-12-16T03:25:30.358Z,1.78
2018-12-16T03:25:56.467Z,1.81
2018-12-16T03:26:22.597Z,1.85
2018-12-16T03:26:49.662Z,1.84
2018-12-16T03:27:15.815Z,1.8
2018-12-16T03:27:41.864Z,1.78
2018-12-16T03:28:07.963Z,1.81
2018-12-16T03:28:34.068Z,1.85
2018-12-16T03:29:00.168Z,1.8
2018-12-16T03:29:26.278Z,1.78
2018-12-16T03:29:52.416Z,1.81
2018-12-16T03:30:18.553Z,1.84
2018-12-16T03:30:44.675Z,1.78
2018-12-16T03:31:10.776Z,1.81
2018-12-16T03:31:36.960Z,1.84
2018-12-16T03:32:03.153Z,1.81
2018-12-16T03:32:29.345Z,1.87
2018-12-16T03:32:55.523Z,1.87
2018-12-16T03:33:21.650Z,1.91
2018-12-16T03:33:47.789Z,1.84
2018-12-16T03:34:13.942Z,1.92
2018-12-16T03:34:40.045Z,1.95
2018-12-16T03:35:06.152Z,1.94
2018-12-16T03:35:32.252Z,1.97
2018-12-16T03:35:58.353Z,1.99
2018-12-16T03:36:24.456Z,1.88
2018-12-16T03:36:50.555Z,1.89
2018-12-16T03:37:16.667Z,2.06
2018-12-16T03:37:42.793Z,1.97
2018-12-16T03:38:08.903Z,1.99
2018-12-16T03:38:35.037Z,2
2018-12-16T03:39:01.169Z,2.04
2018-12-16T03:39:27.269Z,1.97
2018-12-16T03:39:53.370Z,1.94
2018-12-16T03:40:19.474Z,2.02
2018-12-16T03:40:45.582Z,1.95
2018-12-16T03:41:11.713Z,1.94
2018-12-16T03:41:37.819Z,2
2018-12-16T03:42:03.950Z,2.02
2018-12-16T03:42:30.048Z,2.02
2018-12-16T03:42:56.162Z,1.97
2018-12-16T03:43:22.314Z,2.07
2018-12-16T03:43:48.453Z,2.13
2018-12-16T03:44:14.620Z,2.08
2018-12-16T03:44:40.724Z,2.18
2018-12-16T03:45:06.824Z,2.13
2018-12-16T03:45:32.945Z,2.13
2018-12-16T03:45:59.056Z,2.14
2018-12-16T03:46:25.151Z,2.13
2018-12-16T03:46:51.328Z,2.08
2018-12-16T03:47:17.454Z,2.1
2018-12-16T03:47:43.564Z,2.11
2018-12-16T03:48:09.670Z,2.1
2018-12-16T03:48:35.774Z,2.1
2018-12-16T03:49:01.879Z,2.07
2018-12-16T03:49:27.988Z,2.1
2018-12-16T03:49:54.089Z,2.08
2018-12-16T03:50:20.197Z,2.11
2018-12-16T03:50:46.341Z,2.1
2018-12-16T03:51:12.443Z,2.11
2018-12-16T03:51:38.580Z,2.18
2018-12-16T03:52:04.710Z,2.11
2018-12-16T03:52:30.815Z,2.14
2018-12-16T03:52:56.947Z,2.13
2018-12-16T03:53:25.030Z,2.13
2018-12-16T03:53:51.139Z,2.17
2018-12-16T03:54:17.241Z,2.13
2018-12-16T03:54:43.383Z,2.13
2018-12-16T03:55:09.476Z,2.11
2018-12-16T03:55:35.579Z,2.18
2018-12-16T03:56:01.681Z,2.24
2018-12-16T03:56:27.785Z,2.18
2018-12-16T03:56:53.893Z,2.18
2018-12-16T03:57:20.001Z,2.25
2018-12-16T03:57:46.101Z,2.22
2018-12-16T03:58:12.228Z,2.22
2018-12-16T03:58:38.332Z,2.28
2018-12-16T03:59:04.458Z,2.29
2018-12-16T03:59:30.560Z,2.26
2018-12-16T03:59:56.690Z,2.29
2018-12-16T04:00:22.852Z,2.29
2018-12-16T04:00:48.960Z,2.29
2018-12-16T04:01:15.114Z,2.32
2018-12-16T04:01:41.216Z,2.31
2018-12-16T04:02:07.348Z,2.31
2018-12-16T04:02:33.453Z,2.29
2018-12-16T04:02:59.561Z,2.31
2018-12-16T04:03:25.684Z,2.29
2018-12-16T04:03:51.791Z,2.33
2018-12-16T04:04:17.917Z,2.42
2018-12-16T04:04:44.032Z,2.43
2018-12-16T04:05:10.132Z,2.36
2018-12-16T04:05:36.237Z,2.35
2018-12-16T04:06:02.344Z,2.31
2018-12-16T04:06:28.444Z,2.31
2018-12-16T04:06:54.575Z,2.38
2018-12-16T04:07:20.687Z,2.31
2018-12-16T04:07:46.829Z,2.24
2018-12-16T04:08:12.957Z,2.2
2018-12-16T04:08:39.086Z,2.24
2018-12-16T04:09:05.200Z,2.26
2018-12-16T04:09:31.333Z,2.2
2018-12-16T04:09:57.463Z,2.2
2018-12-16T04:10:23.667Z,2.11
2018-12-16T04:10:49.720Z,2.11
2018-12-16T04:11:15.816Z,2.15
2018-12-16T04:11:41.922Z,2.11
2018-12-16T04:12:08.069Z,2.15
2018-12-16T04:12:34.190Z,2.11
2018-12-16T04:13:00.294Z,2.15
2018-12-16T04:13:26.401Z,2.17
2018-12-16T04:13:52.509Z,2.2
2018-12-16T04:14:18.635Z,2.25
2018-12-16T04:14:45.726Z,2.24
2018-12-16T04:15:11.835Z,2.2
2018-12-16T04:15:37.966Z,2.18
2018-12-16T04:16:04.066Z,2.22
2018-12-16T04:16:30.194Z,2.33
2018-12-16T04:16:56.334Z,2.31
2018-12-16T04:17:22.459Z,2.29
2018-12-16T04:17:48.572Z,2.32
2018-12-16T04:18:14.663Z,2.32
2018-12-16T04:18:40.842Z,2.28
2018-12-16T04:19:06.973Z,2.39
2018-12-16T04:19:33.048Z,2.33
2018-12-16T04:19:59.151Z,2.31
2018-12-16T04:20:25.278Z,2.43
2018-12-16T04:20:51.404Z,2.36
2018-12-16T04:21:17.544Z,2.38
2018-12-16T04:21:43.649Z,2.38
2018-12-16T04:22:09.783Z,2.42
2018-12-16T04:22:35.913Z,2.35
2018-12-16T04:23:02.016Z,2.39
2018-12-16T04:23:29.112Z,2.38
2018-12-16T04:23:55.214Z,2.33
2018-12-16T04:24:21.378Z,2.32
2018-12-16T04:24:47.483Z,2.39
2018-12-16T04:25:13.591Z,2.28
2018-12-16T04:25:39.718Z,2.33
2018-12-16T04:26:05.837Z,2.32
2018-12-16T04:26:31.940Z,2.32
2018-12-16T04:26:58.144Z,2.42
2018-12-16T04:27:24.286Z,2.38
2018-12-16T04:27:50.394Z,2.33
2018-12-16T04:28:16.498Z,2.35
2018-12-16T04:28:42.633Z,2.38
2018-12-16T04:29:08.795Z,2.38
2018-12-16T04:29:34.902Z,2.42
2018-12-16T04:30:01.001Z,2.39
2018-12-16T04:30:27.121Z,2.47
2018-12-16T04:30:53.253Z,2.38
2018-12-16T04:31:19.377Z,2.39
2018-12-16T04:31:45.531Z,2.36
2018-12-16T04:32:11.703Z,2.42
2018-12-16T04:32:37.832Z,2.42
2018-12-16T04:33:03.974Z,2.44
2018-12-16T04:33:30.077Z,2.42
2018-12-16T04:33:56.188Z,2.38
2018-12-16T04:34:22.303Z,2.53
2018-12-16T04:34:48.418Z,2.53
2018-12-16T04:35:14.546Z,2.42
2018-12-16T04:35:40.654Z,2.42
2018-12-16T04:36:06.771Z,2.33
2018-12-16T04:36:32.968Z,2.46
2018-12-16T04:36:59.311Z,2.44
2018-12-16T04:37:25.902Z,2.54
2018-12-16T04:37:52.016Z,2.44
2018-12-16T04:38:18.142Z,2.44
2018-12-16T04:38:44.244Z,2.49
2018-12-16T04:39:10.347Z,2.46
2018-12-16T04:39:36.452Z,2.46
2018-12-16T04:40:02.556Z,2.46
2018-12-16T04:40:28.658Z,2.49
2018-12-16T04:40:54.761Z,2.6
2018-12-16T04:41:20.863Z,2.6
2018-12-16T04:41:47.005Z,2.62
2018-12-16T04:42:13.110Z,2.56
2018-12-16T04:42:39.215Z,2.57
2018-12-16T04:43:05.345Z,2.68
2018-12-16T04:43:31.440Z,2.6
2018-12-16T04:43:57.545Z,2.68
2018-12-16T04:44:23.699Z,2.64
2018-12-16T04:44:49.806Z,2.68
2018-12-16T04:45:15.908Z,2.65
2018-12-16T04:45:42.045Z,2.64
2018-12-16T04:46:08.171Z,2.65
2018-12-16T04:46:34.278Z,2.65
2018-12-16T04:47:00.412Z,2.68
2018-12-16T04:47:26.518Z,2.64
2018-12-16T04:47:52.654Z,2.68
2018-12-16T04:48:18.815Z,2.65
2018-12-16T04:48:44.911Z,2.65
2018-12-16T04:49:11.022Z,2.74
2018-12-16T04:49:37.125Z,2.72
2018-12-16T04:50:03.230Z,2.77
2018-12-16T04:50:29.339Z,2.72
2018-12-16T04:50:55.438Z,2.74
2018-12-16T04:51:21.540Z,2.79
2018-12-16T04:51:47.646Z,2.71
2018-12-16T04:52:13.753Z,2.67
2018-12-16T04:52:39.849Z,2.69
2018-12-16T04:53:05.980Z,2.65
2018-12-16T04:53:35.975Z,2.71
2018-12-16T04:53:59.194Z,2.75
2018-12-16T04:54:25.329Z,2.69
2018-12-16T04:54:51.406Z,2.71
2018-12-16T04:55:17.516Z,2.71
2018-12-16T04:55:43.615Z,2.71
2018-12-16T04:56:09.727Z,2.71
2018-12-16T04:56:35.852Z,2.74
2018-12-16T04:57:02.011Z,2.72
2018-12-16T04:57:28.139Z,2.72
2018-12-16T04:57:54.247Z,2.72
2018-12-16T04:58:20.352Z,2.74
2018-12-16T04:58:46.461Z,2.77
2018-12-16T04:59:12.578Z,2.75
2018-12-16T04:59:38.681Z,2.82
2018-12-16T05:00:04.779Z,2.83
2018-12-16T05:00:30.946Z,2.86
2018-12-16T05:00:57.092Z,2.72
2018-12-16T05:01:23.193Z,2.75
2018-12-16T05:01:49.293Z,2.65
2018-12-16T05:02:15.398Z,2.72
2018-12-16T05:02:41.528Z,2.68
2018-12-16T05:03:07.634Z,2.71
2018-12-16T05:03:33.731Z,2.65
2018-12-16T05:03:59.835Z,2.62
2018-12-16T05:04:25.944Z,2.67
2018-12-16T05:04:52.048Z,2.65
2018-12-16T05:05:18.147Z,2.62
2018-12-16T05:05:44.254Z,2.54
2018-12-16T05:06:10.354Z,2.61
2018-12-16T05:06:36.458Z,2.54
2018-12-16T05:07:02.580Z,2.57
2018-12-16T05:07:28.687Z,2.65
2018-12-16T05:07:54.796Z,2.62
2018-12-16T05:08:20.896Z,2.64
2018-12-16T05:08:47.006Z,2.72
2018-12-16T05:09:13.101Z,2.71
2018-12-16T05:09:39.207Z,2.64
2018-12-16T05:10:05.313Z,2.75
2018-12-16T05:10:31.446Z,2.69
2018-12-16T05:10:57.571Z,2.65
2018-12-16T05:11:23.681Z,2.65
2018-12-16T05:11:49.838Z,2.64
2018-12-16T05:12:15.940Z,2.72
2018-12-16T05:12:42.075Z,2.74
2018-12-16T05:13:08.176Z,2.69
2018-12-16T05:13:34.333Z,2.75
2018-12-16T05:14:00.469Z,2.71
2018-12-16T05:14:26.576Z,2.64
2018-12-16T05:14:52.672Z,2.62
2018-12-16T05:15:18.777Z,2.69
2018-12-16T05:15:44.880Z,2.64
2018-12-16T05:16:10.980Z,2.6
2018-12-16T05:16:37.080Z,2.71
2018-12-16T05:17:03.212Z,2.64
2018-12-16T05:17:29.318Z,2.65
2018-12-16T05:17:55.425Z,2.61
2018-12-16T05:18:21.530Z,2.56
2018-12-16T05:18:47.687Z,2.53
2018-12-16T05:19:13.790Z,2.53
2018-12-16T05:19:39.947Z,2.5
2018-12-16T05:20:06.044Z,2.6
2018-12-16T05:20:32.150Z,2.6
2018-12-16T05:20:58.252Z,2.46
2018-12-16T05:21:24.361Z,2.47
2018-12-16T05:21:50.493Z,2.46
2018-12-16T05:22:16.593Z,2.5
2018-12-16T05:22:42.693Z,2.46
2018-12-16T05:23:08.830Z,2.44
2018-12-16T05:23:41.638Z,2.49
2018-12-16T05:24:03.018Z,2.44
2018-12-16T05:24:29.122Z,2.36
2018-12-16T05:24:55.222Z,2.38
2018-12-16T05:25:21.329Z,2.36
2018-12-16T05:25:47.434Z,2.36
2018-12-16T05:26:13.559Z,2.35
2018-12-16T05:26:39.665Z,2.31
2018-12-16T05:27:05.778Z,2.31
2018-12-16T05:27:31.884Z,2.29
2018-12-16T05:27:58.020Z,2.28
2018-12-16T05:28:24.128Z,2.35
2018-12-16T05:28:50.229Z,2.33
2018-12-16T05:29:16.333Z,2.29
2018-12-16T05:29:42.450Z,2.36
2018-12-16T05:30:08.581Z,2.43
2018-12-16T05:30:34.689Z,2.35
2018-12-16T05:31:00.795Z,2.33
2018-12-16T05:31:26.902Z,2.33
2018-12-16T05:31:53.005Z,2.36
2018-12-16T05:32:19.105Z,2.38
2018-12-16T05:32:45.218Z,2.38
2018-12-16T05:33:11.320Z,2.35
2018-12-16T05:33:37.456Z,2.29
2018-12-16T05:34:03.572Z,2.29
2018-12-16T05:34:29.680Z,2.32
2018-12-16T05:34:55.781Z,2.29
2018-12-16T05:35:21.886Z,2.32
2018-12-16T05:35:47.986Z,2.38
2018-12-16T05:36:14.116Z,2.31
2018-12-16T05:36:40.250Z,2.32
2018-12-16T05:37:06.354Z,2.33
2018-12-16T05:37:32.453Z,2.42
2018-12-16T05:37:58.562Z,2.36
2018-12-16T05:38:24.661Z,2.36
2018-12-16T05:38:50.765Z,2.44
2018-12-16T05:39:16.874Z,2.42
2018-12-16T05:39:42.971Z,2.44
2018-12-16T05:40:09.079Z,2.42
2018-12-16T05:40:35.178Z,2.35
2018-12-16T05:41:01.278Z,2.38
2018-12-16T05:41:27.385Z,2.32
2018-12-16T05:41:53.484Z,2.31
2018-12-16T05:42:19.589Z,2.31
2018-12-16T05:42:45.695Z,2.28
2018-12-16T05:43:11.800Z,2.28
2018-12-16T05:43:37.910Z,2.36
2018-12-16T05:44:04.010Z,2.24
2018-12-16T05:44:30.109Z,2.22
2018-12-16T05:44:56.219Z,2.24
2018-12-16T05:45:22.318Z,2.22
2018-12-16T05:45:48.457Z,2.2
2018-12-16T05:46:14.558Z,2.18
2018-12-16T05:46:40.670Z,2.24
2018-12-16T05:47:06.799Z,2.14
2018-12-16T05:47:32.904Z,2.17
2018-12-16T05:47:59.008Z,2.11
2018-12-16T05:48:25.113Z,2.17
2018-12-16T05:48:51.213Z,2.17
2018-12-16T05:49:17.314Z,2.2
2018-12-16T05:49:43.414Z,2.2
2018-12-16T05:50:09.520Z,2.17
2018-12-16T05:50:35.620Z,2.25
2018-12-16T05:51:01.718Z,2.22
2018-12-16T05:51:27.822Z,2.31
2018-12-16T05:51:53.947Z,2.2
2018-12-16T05:52:20.053Z,2.18
2018-12-16T05:52:46.158Z,2.17
2018-12-16T05:53:12.293Z,2.11
2018-12-16T05:53:38.419Z,2.1